Time;durP1;ratioP1;P1;durP2;ratioP2;P2;SDS_P1;SDS_P2;PMS_P1;PMS_P2;Temp;Humidity;BMP_temperature;BMP_pressure;BME280_temperature;BME280_humidity;BME280_pressure;Samples;Min_cycle;Max_cycle;Signal;HPM_P1;HPM_P2
2021/10/25 00:01:21;;;;;;;11.43;7.68;;;;;;;8.60;68.37;100756.94;10185202;29;20533;-64
2021/10/25 00:06:23;;;;;;;9.32;7.75;;;;;;;8.54;69.01;100754.69;10170141;29;20051;-64
2021/10/25 00:11:24;;;;;;;9.50;8.32;;;;;;;8.54;68.63;100752.03;10174678;29;20106;-64
2021/10/25 00:16:26;;;;;;;8.07;7.38;;;;;;;8.64;68.58;100753.16;10171114;29;20508;-63
2021/10/25 00:21:27;;;;;;;9.20;8.30;;;;;;;8.57;69.09;100750.06;10169536;29;22714;-64
2021/10/25 00:26:30;;;;;;;9.18;7.80;;;;;;;8.55;68.83;100749.28;10184802;28;20142;-63
2021/10/25 00:31:32;;;;;;;9.10;7.43;;;;;;;8.70;68.25;100747.47;10171884;29;20126;-63
2021/10/25 00:36:34;;;;;;;8.40;7.55;;;;;;;8.65;68.45;100744.25;10170874;29;20050;-64
2021/10/25 00:41:35;;;;;;;8.35;7.45;;;;;;;8.64;68.42;100743.38;10165251;29;20071;-64
2021/10/25 00:46:38;;;;;;;8.93;7.60;;;;;;;8.45;69.06;100725.16;10173636;29;20138;-63
2021/10/25 00:51:40;;;;;;;8.98;7.93;;;;;;;8.34;69.34;100738.22;10169136;29;20056;-64
2021/10/25 00:56:43;;;;;;;10.77;9.88;;;;;;;8.17;69.34;100743.72;10166704;29;20071;-64
2021/10/25 01:01:45;;;;;;;8.85;7.43;;;;;;;8.03;70.30;100750.75;10172378;29;20052;-63
2021/10/25 01:06:48;;;;;;;8.70;7.53;;;;;;;8.03;70.04;100752.53;10170925;29;20063;-64
2021/10/25 01:11:50;;;;;;;7.70;6.70;;;;;;;8.00;70.32;100756.25;10171488;29;20093;-63
2021/10/25 01:16:53;;;;;;;7.38;6.45;;;;;;;7.88;70.56;100755.22;10153197;29;20052;-63
2021/10/25 01:21:55;;;;;;;8.95;6.88;;;;;;;7.85;70.79;100759.81;10172224;29;20516;-63
2021/10/25 01:26:56;;;;;;;7.97;6.88;;;;;;;7.89;70.68;100750.75;10178502;29;20079;-63
2021/10/25 01:31:58;;;;;;;8.82;7.07;;;;;;;7.84;70.31;100752.84;10205558;28;20051;-62
2021/10/25 01:37:00;;;;;;;7.07;6.32;;;;;;;7.80;69.97;100738.91;10205430;28;20051;-63
2021/10/25 01:42:03;;;;;;;7.90;6.85;;;;;;;7.66;70.66;100729.16;10191705;28;20056;-64
2021/10/25 01:47:05;;;;;;;9.13;7.53;;;;;;;7.65;70.67;100742.50;10172960;29;20114;-67
2021/10/25 01:52:07;;;;;;;10.15;6.97;;;;;;;7.46;72.10;100740.09;10172970;28;20577;-63
2021/10/25 01:57:09;;;;;;;7.57;6.82;;;;;;;7.42;71.77;100737.63;10168385;29;20047;-65
2021/10/25 02:02:11;;;;;;;10.65;7.28;;;;;;;7.43;71.61;100742.00;10162150;29;20052;-63
2021/10/25 02:07:13;;;;;;;7.78;6.93;;;;;;;7.41;71.41;100746.50;10165547;29;20051;-63
2021/10/25 02:12:15;;;;;;;8.52;7.18;;;;;;;7.32;71.49;100731.16;10164587;29;20078;-64
2021/10/25 02:17:16;;;;;;;9.38;7.40;;;;;;;7.33;71.74;100735.53;10158790;29;20543;-63
2021/10/25 02:22:19;;;;;;;9.02;8.15;;;;;;;7.28;70.96;100732.31;10168062;29;20119;-64
2021/10/25 02:27:20;;;;;;;7.07;6.38;;;;;;;7.22;71.09;100730.00;10165871;29;20130;-63
2021/10/25 02:32:22;;;;;;;7.07;6.38;;;;;;;7.19;70.53;100714.28;10165443;29;20063;-63
2021/10/25 02:37:23;;;;;;;8.18;7.32;;;;;;;7.19;70.54;100727.53;10163619;29;20492;-63
2021/10/25 02:42:27;;;;;;;8.77;7.97;;;;;;;7.14;70.81;100719.88;10167234;29;20051;-65
2021/10/25 02:47:28;;;;;;;8.95;8.18;;;;;;;7.08;70.95;100717.59;10179318;29;20779;-63
2021/10/25 02:52:30;;;;;;;7.80;6.78;;;;;;;7.05;70.95;100715.97;10174098;29;20079;-63
2021/10/25 02:57:31;;;;;;;7.97;7.18;;;;;;;6.98;71.16;100722.56;10180172;29;20659;-62
2021/10/25 03:02:33;;;;;;;8.00;7.28;;;;;;;7.01;71.39;100726.81;10179065;29;20110;-63
2021/10/25 03:07:35;;;;;;;8.77;7.20;;;;;;;7.06;70.53;100730.91;10187879;29;20138;-63
2021/10/25 03:12:37;;;;;;;9.35;7.20;;;;;;;6.89;70.95;100733.66;10167522;29;20088;-63
2021/10/25 03:17:38;;;;;;;9.57;6.65;;;;;;;6.91;71.22;100731.81;10174742;29;20056;-66
2021/10/25 03:22:40;;;;;;;8.43;7.00;;;;;;;6.90;71.08;100736.25;10175356;29;20083;-63
2021/10/25 03:27:42;;;;;;;8.93;7.53;;;;;;;6.87;71.00;100727.63;10178301;29;20493;-63
2021/10/25 03:32:44;;;;;;;9.23;8.10;;;;;;;6.83;70.92;100734.03;10174327;28;20127;-64
2021/10/25 03:37:46;;;;;;;8.25;7.22;;;;;;;6.77;70.85;100729.09;10169802;29;20067;-63
2021/10/25 03:42:50;;;;;;;10.80;7.00;;;;;;;6.83;70.64;100731.38;10173438;29;20127;-63
2021/10/25 04:29:27;;;;;;;8.35;7.47;;;;;;;7.20;70.06;100694.81;10167597;29;20131;-63
2021/10/25 04:34:29;;;;;;;8.13;7.35;;;;;;;7.17;70.95;100710.91;10176285;29;20071;-64
2021/10/25 04:39:30;;;;;;;8.57;7.47;;;;;;;7.14;71.68;100708.44;10173273;29;20569;-63
2021/10/25 04:44:32;;;;;;;8.73;7.75;;;;;;;7.08;72.11;100717.59;10179842;28;20714;-63
2021/10/25 04:49:33;;;;;;;8.85;7.93;;;;;;;7.10;71.66;100712.19;10165963;29;20111;-69
2021/10/25 04:54:35;;;;;;;7.95;7.18;;;;;;;7.05;71.20;100701.88;10175376;29;20470;-63
2021/10/25 04:59:37;;;;;;;9.95;8.18;;;;;;;7.03;71.12;100687.91;10168672;29;20119;-63
2021/10/25 05:04:38;;;;;;;14.68;9.70;;;;;;;6.96;70.50;100676.78;10156706;28;20108;-63
2021/10/25 05:09:40;;;;;;;9.50;8.32;;;;;;;6.95;70.29;100669.81;10169393;29;20059;-64
2021/10/25 05:14:42;;;;;;;10.65;9.32;;;;;;;7.03;69.72;100672.00;10175775;29;20441;-63
2021/10/25 05:19:44;;;;;;;9.88;8.15;;;;;;;7.02;69.25;100676.44;10167431;28;20079;-62
2021/10/25 05:24:46;;;;;;;10.60;8.00;;;;;;;6.97;68.56;100686.44;10149657;28;20151;-64
2021/10/25 05:29:48;;;;;;;22.77;13.75;;;;;;;6.89;69.47;100676.31;10162333;29;20111;-65
2021/10/25 05:34:49;;;;;;;11.50;9.20;;;;;;;6.82;69.46;100674.13;10168958;29;20086;-63
2021/10/25 05:39:51;;;;;;;8.90;7.57;;;;;;;6.79;69.90;100675.13;10164106;28;20082;-64
2021/10/25 05:44:52;;;;;;;10.63;7.43;;;;;;;6.78;70.04;100667.28;10166422;29;20140;-64
2021/10/25 05:49:53;;;;;;;8.85;8.05;;;;;;;6.87;70.47;100672.03;10166585;28;20107;-64
2021/10/25 05:54:55;;;;;;;9.55;8.65;;;;;;;7.01;68.73;100685.34;10172311;29;20050;-64
2021/10/25 05:59:58;;;;;;;15.20;10.65;;;;;;;6.81;69.87;100670.59;10170556;28;20056;-63
2021/10/25 06:04:59;;;;;;;11.77;10.45;;;;;;;6.94;69.19;100691.09;10170328;29;20055;-63
2021/10/25 06:10:01;;;;;;;10.60;9.50;;;;;;;7.02;69.79;100692.31;10172428;29;21269;-61
2021/10/25 06:15:08;;;;;;;12.98;9.45;;;;;;;7.17;70.09;100687.06;10159265;29;20051;-61
2021/10/25 06:20:12;;;;;;;19.83;10.63;;;;;;;6.92;70.54;100691.19;10177496;29;20063;-61
2021/10/25 06:25:14;;;;;;;19.67;12.35;;;;;;;6.79;72.78;100688.38;10179674;29;20054;-60
2021/10/25 06:30:16;;;;;;;17.50;11.98;;;;;;;6.69;72.29;100689.84;10177666;29;20089;-60
2021/10/25 06:35:23;;;;;;;20.35;12.40;;;;;;;6.75;72.40;100693.94;10184334;29;20048;-61
2021/10/25 06:40:26;;;;;;;19.60;12.02;;;;;;;6.89;73.51;100709.84;10175223;28;20055;-62
2021/10/25 06:45:28;;;;;;;22.35;13.60;;;;;;;6.92;73.12;100707.06;10182544;29;20046;-62
2021/10/25 06:50:34;;;;;;;20.80;13.40;;;;;;;6.95;73.80;100720.09;10181774;28;20070;-63
2021/10/25 06:55:36;;;;;;;20.80;13.23;;;;;;;6.98;74.32;100729.63;10177442;29;20051;-63
2021/10/25 07:00:37;;;;;;;18.27;12.43;;;;;;;7.08;74.38;100733.47;10178656;29;20135;-64
2021/10/25 07:05:39;;;;;;;20.33;13.73;;;;;;;7.08;74.87;100723.72;10175851;29;20055;-61
2021/10/25 07:10:41;;;;;;;21.27;14.82;;;;;;;7.18;75.71;100725.84;10191355;28;20167;-61
2021/10/25 07:15:59;;;;;;;22.38;14.35;;;;;;;7.21;75.05;100731.81;10173942;29;20183;-62
2021/10/25 07:21:28;;;;;;;18.77;15.43;;;;;;;7.43;75.74;100743.75;10177492;29;20107;-61
2021/10/25 08:03:48;;;;;;;27.20;19.27;;;;;;;8.66;72.55;100743.28;10172932;29;20177;-63
2021/10/25 08:08:53;;;;;;;24.73;18.65;;;;;;;8.54;72.07;100741.44;10165888;29;20055;-63
2021/10/25 08:14:02;;;;;;;24.92;19.55;;;;;;;8.90;72.17;100742.66;10178835;28;20559;-63
2021/10/25 08:19:14;;;;;;;26.83;20.33;;;;;;;9.17;71.27;100727.56;10170529;28;20823;-64
2021/10/25 08:24:15;;;;;;;28.27;21.40;;;;;;;9.55;70.02;100742.69;10157815;29;20186;-62
2021/10/25 08:29:18;;;;;;;24.02;20.02;;;;;;;9.61;69.57;100732.59;10178356;28;20047;-62
2021/10/25 08:39:57;;;;;;;29.30;23.20;;;;;;;9.57;69.29;100741.75;10167010;29;20753;-64
2021/10/25 08:45:12;;;;;;;27.55;22.63;;;;;;;9.70;68.97;100737.28;10165248;29;21223;-63
2021/10/25 08:50:17;;;;;;;31.10;22.35;;;;;;;9.79;68.64;100723.34;10165929;28;20052;-63
2021/10/25 08:55:19;;;;;;;27.92;21.45;;;;;;;9.72;68.25;100736.19;10157781;29;20044;-61
2021/10/25 09:00:47;;;;;;;23.48;19.00;;;;;;;9.83;68.27;100743.47;10166984;29;20084;-62
2021/10/25 09:06:02;;;;;;;25.92;20.63;;;;;;;9.83;67.62;100739.94;10171270;28;20058;-63
2021/10/25 09:11:04;;;;;;;26.08;21.20;;;;;;;9.86;67.41;100737.06;10163442;29;20139;-63
2021/10/25 09:16:06;;;;;;;22.83;19.08;;;;;;;10.01;67.69;100732.47;10168727;29;20736;-63
2021/10/25 09:21:13;;;;;;;26.08;20.50;;;;;;;10.10;66.85;100726.50;10174260;28;20062;-62
2021/10/25 09:26:29;;;;;;;25.15;18.75;;;;;;;10.49;64.31;100724.63;10167606;29;20086;-62
2021/10/25 09:31:33;;;;;;;23.70;19.17;;;;;;;10.24;65.66;100733.53;10167705;28;21129;-62
2021/10/25 09:36:39;;;;;;;24.92;22.08;;;;;;;10.06;65.61;100731.19;10168250;29;20067;-63
2021/10/25 09:41:56;;;;;;;26.33;20.75;;;;;;;10.43;65.39;100731.25;10157629;28;20554;-63
2021/10/25 09:52:37;;;;;;;23.70;18.83;;;;;;;13.58;54.74;100711.06;10173057;28;20051;-63
2021/10/25 10:02:42;;;;;;;20.80;18.17;;;;;;;13.20;55.82;100723.16;10174253;29;20243;-63
2021/10/25 10:07:45;;;;;;;20.85;17.77;;;;;;;12.78;55.71;100710.56;10172717;29;20142;-62
2021/10/25 10:12:48;;;;;;;19.90;16.33;;;;;;;12.29;56.96;100715.41;10181077;28;20738;-63
2021/10/25 10:17:53;;;;;;;21.27;18.23;;;;;;;12.34;56.70;100715.91;10174086;28;20094;-65
2021/10/25 10:22:59;;;;;;;20.08;18.05;;;;;;;14.58;51.76;100722.88;10170524;29;20052;-64
2021/10/25 10:28:12;;;;;;;17.92;16.13;;;;;;;14.29;50.32;100720.94;10175618;29;20158;-64
2021/10/25 10:33:14;;;;;;;51.13;20.63;;;;;;;13.36;53.41;100723.59;10173955;29;20416;-63
2021/10/25 10:38:15;;;;;;;18.52;16.15;;;;;;;13.66;53.25;100713.06;10182747;28;20130;-64
2021/10/25 10:43:26;;;;;;;18.15;16.27;;;;;;;16.13;47.92;100701.38;10171586;28;20048;-64
2021/10/25 10:48:31;;;;;;;17.77;16.02;;;;;;;19.99;39.42;100696.97;10172352;28;20081;-65
2021/10/25 10:53:35;;;;;;;17.27;15.48;;;;;;;22.48;34.56;100678.44;10172268;28;20056;-66
2021/10/25 11:03:42;;;;;;;15.35;13.85;;;;;;;26.26;26.97;100672.06;10174043;29;20063;-64
2021/10/25 11:08:48;;;;;;;13.57;12.20;;;;;;;24.45;30.45;100671.31;10180786;29;20845;-70
2021/10/25 11:14:11;;;;;;;17.48;15.00;;;;;;;21.88;33.19;100664.97;10176577;29;20099;-65
2021/10/25 11:19:13;;;;;;;13.68;12.35;;;;;;;25.13;29.38;100660.34;10176847;29;20067;-65
2021/10/25 11:24:17;;;;;;;13.40;11.82;;;;;;;28.57;25.03;100652.03;10170319;29;20085;-64
2021/10/25 11:29:26;;;;;;;13.52;12.32;;;;;;;30.93;22.26;100641.81;10175417;29;20059;-66
2021/10/25 11:34:33;;;;;;;13.73;12.43;;;;;;;32.07;20.96;100638.75;10142031;29;20061;-65
2021/10/25 11:39:48;;;;;;;12.43;11.27;;;;;;;30.63;22.00;100631.97;10165926;29;20059;-66
2021/10/25 11:44:51;;;;;;;13.05;11.55;;;;;;;32.25;19.81;100637.63;10171998;29;20106;-65
2021/10/25 11:50:00;;;;;;;12.68;11.38;;;;;;;32.74;19.56;100620.19;10169008;28;20055;-63
2021/10/25 11:55:02;;;;;;;11.95;10.77;;;;;;;34.33;18.07;100621.06;10173498;29;20128;-60
2021/10/25 12:00:10;;;;;;;13.90;10.73;;;;;;;35.00;17.42;100600.94;10174172;29;20110;-62
2021/10/25 12:05:18;;;;;;;11.25;10.32;;;;;;;35.46;16.69;100602.78;10177682;29;20170;-65
2021/10/25 12:10:21;;;;;;;10.43;9.55;;;;;;;35.51;16.41;100595.28;10166130;28;20083;-65
2021/10/25 12:15:24;;;;;;;11.15;10.05;;;;;;;33.55;17.96;100579.66;10179436;29;20481;-65
2021/10/25 12:20:32;;;;;;;11.65;10.68;;;;;;;29.55;22.14;100576.84;10169573;29;20110;-65
2021/10/25 12:25:59;;;;;;;11.52;10.32;;;;;;;32.02;20.32;100573.47;10177300;29;20048;-63
2021/10/25 12:31:08;;;;;;;10.98;9.95;;;;;;;32.67;19.07;100557.03;10166217;29;20076;-66
2021/10/25 12:36:15;;;;;;;12.27;10.65;;;;;;;34.79;17.58;100545.66;10175821;29;20069;-63
2021/10/25 12:41:16;;;;;;;11.10;10.02;;;;;;;35.38;16.17;100543.31;10160332;29;20142;-66
2021/10/25 12:46:21;;;;;;;11.45;10.38;;;;;;;36.12;15.85;100526.84;10167535;29;20165;-66
2021/10/25 12:51:37;;;;;;;10.45;9.55;;;;;;;36.58;15.64;100534.00;10170459;29;20064;-66
2021/10/25 12:56:40;;;;;;;11.23;10.23;;;;;;;37.20;14.98;100528.66;10171851;29;20070;-67
2021/10/25 13:01:52;;;;;;;10.35;9.35;;;;;;;36.96;14.98;100515.63;10175436;28;20133;-66
2021/10/25 13:06:55;;;;;;;10.57;9.40;;;;;;;36.48;15.87;100512.75;10176612;29;20049;-66
2021/10/25 13:11:56;;;;;;;9.50;8.48;;;;;;;36.99;15.53;100511.41;10175410;29;20591;-65
2021/10/25 13:16:57;;;;;;;9.00;8.35;;;;;;;36.84;14.76;100504.09;10174646;29;20143;-65
2021/10/25 13:21:59;;;;;;;9.07;8.25;;;;;;;37.10;14.64;100501.88;10167920;29;20059;-66
2021/10/25 13:27:00;;;;;;;9.57;8.45;;;;;;;36.31;15.14;100495.72;10172741;28;20051;-66
2021/10/25 13:32:02;;;;;;;9.80;8.45;;;;;;;36.40;15.37;100493.97;10167164;28;20130;-66
2021/10/25 13:37:04;;;;;;;9.45;8.52;;;;;;;36.52;15.33;100469.47;10167199;29;20692;-67
2021/10/25 13:42:05;;;;;;;8.38;7.57;;;;;;;36.74;14.90;100471.75;10166155;28;20138;-65
2021/10/25 13:47:07;;;;;;;12.77;8.68;;;;;;;35.97;15.83;100468.81;10170506;29;20146;-67
2021/10/25 13:52:08;;;;;;;9.02;7.65;;;;;;;35.60;15.90;100459.91;10176680;28;20136;-65
2021/10/25 13:57:10;;;;;;;7.78;7.18;;;;;;;36.20;15.24;100451.47;10172727;29;20127;-68
2021/10/25 14:02:13;;;;;;;9.88;8.70;;;;;;;35.01;16.16;100458.78;10168066;29;20059;-66
2021/10/25 14:07:20;;;;;;;9.23;8.25;;;;;;;34.77;16.56;100451.13;10152306;29;20059;-66
2021/10/25 14:12:27;;;;;;;8.45;7.65;;;;;;;34.10;17.58;100451.16;10165057;28;20111;-67
2021/10/25 14:17:46;;;;;;;9.55;8.65;;;;;;;33.87;17.87;100451.69;10155429;28;20071;-68
2021/10/25 14:22:48;;;;;;;8.98;8.18;;;;;;;33.65;17.98;100438.94;10170847;28;20071;-66
2021/10/25 14:27:50;;;;;;;8.13;7.47;;;;;;;32.70;19.09;100438.03;10167771;28;20520;-67
2021/10/25 14:32:51;;;;;;;9.85;8.95;;;;;;;31.89;20.04;100442.59;10160690;28;20051;-67
2021/10/25 14:37:54;;;;;;;10.35;9.30;;;;;;;31.32;20.31;100443.91;10167646;28;20076;-66
2021/10/25 14:42:59;;;;;;;9.93;9.05;;;;;;;29.42;22.28;100433.44;10178776;29;22024;-65
2021/10/25 14:48:19;;;;;;;10.05;9.07;;;;;;;27.50;25.12;100431.09;10183070;29;20199;-66
2021/10/25 14:53:33;;;;;;;10.45;9.35;;;;;;;25.64;27.44;100427.16;10168005;29;20928;-64
2021/10/25 14:58:35;;;;;;;11.43;10.15;;;;;;;22.60;32.80;100433.59;10166315;29;20048;-65
2021/10/25 15:03:38;;;;;;;12.40;10.77;;;;;;;20.95;36.17;100428.94;10173231;28;20420;-64
2021/10/25 15:08:41;;;;;;;12.63;11.20;;;;;;;20.11;38.08;100430.75;10179392;29;20396;-63
2021/10/25 15:13:42;;;;;;;12.77;11.60;;;;;;;19.48;40.04;100421.88;10165531;28;20993;-63
2021/10/25 15:18:43;;;;;;;15.30;13.30;;;;;;;19.00;41.16;100423.81;10162431;29;20207;-65
2021/10/25 15:23:45;;;;;;;16.73;15.00;;;;;;;18.42;42.49;100420.38;10160105;28;20047;-62
2021/10/25 15:28:47;;;;;;;19.38;15.82;;;;;;;18.23;42.45;100421.59;10178438;29;20070;-65
2021/10/25 15:33:48;;;;;;;18.33;16.42;;;;;;;17.83;43.35;100429.44;10179261;29;20126;-63
2021/10/25 15:38:51;;;;;;;17.25;15.40;;;;;;;17.33;44.72;100415.06;10177188;29;20138;-64
2021/10/25 15:43:52;;;;;;;17.10;15.23;;;;;;;17.14;45.53;100418.84;10175576;29;20059;-65
2021/10/25 15:48:54;;;;;;;20.67;15.02;;;;;;;16.87;46.63;100410.00;10178607;28;20134;-65
2021/10/25 15:53:55;;;;;;;19.25;15.73;;;;;;;16.58;46.14;100400.41;10178250;28;20086;-65
2021/10/25 15:58:57;;;;;;;19.38;17.27;;;;;;;16.17;49.16;100401.97;10176152;29;20067;-64
2021/10/25 16:03:58;;;;;;;18.50;15.68;;;;;;;16.11;49.81;100403.47;10177833;29;20119;-65
2021/10/25 16:09:01;;;;;;;18.98;16.98;;;;;;;15.90;51.20;100407.31;10178369;29;20055;-64
2021/10/25 16:14:03;;;;;;;18.33;16.35;;;;;;;15.64;50.68;100407.22;10173103;29;20269;-64
2021/10/25 16:19:05;;;;;;;17.45;15.32;;;;;;;15.39;52.75;100403.44;10171191;29;20070;-64
2021/10/25 16:24:06;;;;;;;21.45;14.52;;;;;;;15.25;53.11;100402.09;10141430;29;20453;-64
2021/10/25 16:29:10;;;;;;;19.08;15.95;;;;;;;15.05;53.99;100411.25;10138247;29;20134;-63
2021/10/25 16:34:11;;;;;;;16.10;14.38;;;;;;;14.74;55.11;100409.69;10161326;28;20074;-63
2021/10/25 16:39:13;;;;;;;18.20;15.13;;;;;;;14.67;56.00;100413.94;10174130;28;20106;-63
2021/10/25 16:44:14;;;;;;;19.92;14.95;;;;;;;14.54;56.17;100413.38;10172499;29;20058;-64
2021/10/25 16:49:21;;;;;;;16.70;14.30;;;;;;;14.38;55.33;100425.56;10175080;29;20127;-64
2021/10/25 17:10:07;;;;;;;16.45;13.80;;;;;;;13.91;58.77;100428.13;10173420;29;20476;-67
2021/10/25 17:15:09;;;;;;;18.27;15.68;;;;;;;13.85;58.65;100424.19;10171765;29;20135;-65
2021/10/25 17:20:11;;;;;;;15.30;13.68;;;;;;;13.72;58.96;100424.47;10167846;29;20119;-63
2021/10/25 17:25:13;;;;;;;18.65;14.45;;;;;;;13.67;59.57;100436.56;10173967;29;20604;-63
2021/10/25 17:30:14;;;;;;;19.10;14.73;;;;;;;13.42;58.52;100431.59;10172284;28;20130;-63
2021/10/25 17:35:15;;;;;;;19.90;16.42;;;;;;;13.22;60.02;100443.19;10152041;28;20125;-62
2021/10/25 17:40:21;;;;;;;16.60;14.93;;;;;;;13.32;60.34;100444.06;10161912;28;20051;-64
2021/10/25 17:45:25;;;;;;;18.58;14.70;;;;;;;13.34;60.49;100439.44;10166422;29;20597;-64
2021/10/25 17:50:27;;;;;;;16.48;13.95;;;;;;;13.35;60.39;100443.00;10167015;29;20130;-63
2021/10/25 17:55:28;;;;;;;17.55;14.77;;;;;;;13.20;60.81;100439.81;10165078;28;20063;-67
2021/10/25 18:00:31;;;;;;;16.70;14.27;;;;;;;13.21;60.88;100452.19;10162676;28;20201;-62
2021/10/25 18:05:36;;;;;;;18.83;15.05;;;;;;;13.22;61.24;100448.53;10161757;28;20053;-62
2021/10/25 18:10:39;;;;;;;20.00;15.88;;;;;;;13.11;61.54;100451.34;10161470;28;20050;-61
2021/10/25 18:15:49;;;;;;;16.63;14.68;;;;;;;13.06;62.41;100465.94;10170867;29;20390;-64
2021/10/25 18:20:52;;;;;;;16.70;14.77;;;;;;;12.84;63.10;100461.59;10169503;29;20050;-61
2021/10/25 18:25:54;;;;;;;18.37;15.13;;;;;;;12.99;62.77;100464.78;10171705;29;20092;-63
2021/10/25 18:30:56;;;;;;;18.02;14.13;;;;;;;13.00;62.92;100460.25;10176228;29;20191;-62
2021/10/25 18:35:57;;;;;;;16.17;14.52;;;;;;;12.93;63.27;100457.28;10173454;28;20553;-61
2021/10/25 18:40:59;;;;;;;18.58;15.60;;;;;;;12.89;63.49;100450.53;10142465;29;20166;-63
2021/10/25 18:46:01;;;;;;;18.52;14.90;;;;;;;12.85;63.44;100449.09;10153198;28;20983;-62
2021/10/25 18:51:08;;;;;;;16.08;14.40;;;;;;;12.61;64.09;100450.25;10170923;28;20056;-63
2021/10/25 18:56:09;;;;;;;20.30;16.38;;;;;;;12.56;64.30;100447.13;10172150;28;21985;-64
2021/10/25 19:01:10;;;;;;;21.10;17.45;;;;;;;12.38;65.08;100450.41;10168572;28;20055;-63
2021/10/25 19:06:13;;;;;;;19.33;16.52;;;;;;;12.18;65.32;100448.56;10169874;28;20051;-61
2021/10/25 19:11:14;;;;;;;18.02;16.13;;;;;;;12.20;65.41;100451.94;10168570;28;20142;-62
2021/10/25 19:16:16;;;;;;;18.33;16.42;;;;;;;12.11;66.15;100452.72;10171964;28;20059;-62
2021/10/25 19:21:17;;;;;;;21.90;17.90;;;;;;;12.05;66.80;100458.56;10169763;28;20051;-62
2021/10/25 19:26:19;;;;;;;24.90;18.08;;;;;;;12.02;66.54;100449.00;10168490;29;20096;-62
2021/10/25 19:31:22;;;;;;;22.98;18.55;;;;;;;12.06;67.02;100454.94;10172305;28;20135;-64
2021/10/25 19:36:23;;;;;;;22.77;19.40;;;;;;;12.08;66.92;100463.66;10158839;29;20055;-63
2021/10/25 19:41:26;;;;;;;21.42;19.08;;;;;;;11.98;66.92;100459.09;10167658;29;20163;-61
2021/10/25 19:46:29;;;;;;;23.40;19.92;;;;;;;11.97;67.51;100451.22;10171297;28;20118;-60
2021/10/25 19:51:30;;;;;;;24.80;19.63;;;;;;;11.90;67.35;100456.16;10183726;28;20131;-62
2021/10/25 19:56:32;;;;;;;26.15;19.88;;;;;;;11.86;67.21;100465.41;10170143;29;20147;-62
2021/10/25 20:01:33;;;;;;;26.13;21.00;;;;;;;11.81;67.38;100456.91;10171108;28;20205;-63
2021/10/25 20:06:36;;;;;;;28.08;21.52;;;;;;;11.82;67.56;100467.47;10174931;28;20148;-61
2021/10/25 20:11:37;;;;;;;22.98;19.75;;;;;;;11.77;67.52;100458.13;10155247;28;20051;-63
2021/10/25 20:16:39;;;;;;;25.85;20.80;;;;;;;11.81;67.93;100464.94;10154867;29;20043;-62
2021/10/25 20:21:40;;;;;;;26.27;20.90;;;;;;;11.89;68.00;100469.63;10164600;28;20070;-63
2021/10/25 20:26:42;;;;;;;27.38;21.48;;;;;;;11.98;67.98;100468.88;10164010;29;20217;-64
2021/10/25 20:31:44;;;;;;;26.40;21.98;;;;;;;12.08;67.44;100474.31;10171227;28;20726;-62
2021/10/25 20:36:46;;;;;;;25.40;19.40;;;;;;;12.18;67.93;100469.91;10165340;28;20061;-63
2021/10/25 20:41:47;;;;;;;25.33;20.05;;;;;;;12.12;67.66;100479.28;10164406;29;20111;-65
2021/10/25 20:46:49;;;;;;;23.05;19.92;;;;;;;12.17;68.05;100478.88;10168230;28;20059;-63
2021/10/25 20:51:51;;;;;;;23.27;20.38;;;;;;;12.22;67.72;100486.50;10171159;28;20147;-64
2021/10/25 20:56:52;;;;;;;22.63;19.33;;;;;;;12.14;68.38;100492.47;10170167;28;20071;-64
2021/10/25 21:01:55;;;;;;;26.25;20.77;;;;;;;12.27;68.38;100500.31;10167774;29;20055;-63
2021/10/25 21:06:56;;;;;;;25.73;20.85;;;;;;;12.31;68.20;100494.59;10172267;29;20521;-62
2021/10/25 21:11:58;;;;;;;27.80;21.52;;;;;;;12.25;68.10;100499.59;10164097;29;20044;-66
2021/10/25 21:16:59;;;;;;;24.27;20.75;;;;;;;12.27;68.60;100506.50;10172479;29;20058;-61
2021/10/25 21:22:01;;;;;;;29.27;21.20;;;;;;;12.37;68.56;100517.28;10172496;29;20083;-62
2021/10/25 21:27:03;;;;;;;25.48;22.23;;;;;;;12.23;68.61;100502.38;10164689;29;20135;-63
2021/10/25 21:32:05;;;;;;;24.17;19.73;;;;;;;12.22;69.24;100511.38;10153520;29;20079;-65
2021/10/25 21:37:07;;;;;;;23.42;20.10;;;;;;;12.14;69.33;100508.50;10137471;29;20144;-61
2021/10/25 21:42:08;;;;;;;24.13;20.70;;;;;;;12.11;69.30;100508.75;10162593;29;20234;-63
2021/10/25 21:47:10;;;;;;;25.60;20.73;;;;;;;12.08;69.16;100506.34;10157469;29;20131;-63
2021/10/25 21:52:11;;;;;;;27.27;19.70;;;;;;;12.01;70.24;100498.00;10185978;29;20142;-62
2021/10/25 21:57:13;;;;;;;22.05;19.73;;;;;;;11.97;70.10;100496.56;10176938;29;20092;-63
2021/10/25 22:02:14;;;;;;;25.73;19.98;;;;;;;11.98;70.16;100491.09;10182386;29;20075;-65
2021/10/25 22:07:16;;;;;;;24.80;20.92;;;;;;;11.97;70.66;100494.72;10180709;29;20470;-65
2021/10/25 22:12:17;;;;;;;23.80;19.63;;;;;;;11.92;70.44;100502.25;10184832;29;20134;-65
2021/10/25 22:17:19;;;;;;;24.52;20.13;;;;;;;11.81;70.10;100494.25;10179705;29;20156;-63
2021/10/25 22:22:20;;;;;;;25.80;20.23;;;;;;;11.83;70.98;100503.84;10176482;29;20154;-63
2021/10/25 22:27:22;;;;;;;21.88;18.45;;;;;;;11.81;70.47;100497.78;10182220;29;20110;-63
2021/10/25 22:32:25;;;;;;;21.25;18.90;;;;;;;11.91;70.38;100499.72;10185284;29;20736;-63
2021/10/25 22:37:30;;;;;;;22.25;17.95;;;;;;;11.89;71.13;100496.28;10169238;29;20557;-63
2021/10/25 22:42:32;;;;;;;21.52;17.92;;;;;;;11.90;71.18;100482.84;10178691;29;20821;-64
2021/10/25 22:47:34;;;;;;;21.20;17.00;;;;;;;11.84;71.19;100494.88;10172858;28;20101;-63
2021/10/25 22:52:35;;;;;;;28.02;19.73;;;;;;;11.82;71.82;100507.47;10181364;29;20149;-64
2021/10/25 22:57:37;;;;;;;23.88;19.08;;;;;;;11.89;71.48;100513.16;10165554;29;20147;-63
2021/10/25 23:02:39;;;;;;;26.42;19.70;;;;;;;11.80;72.24;100498.75;10169438;29;20067;-62
2021/10/25 23:07:41;;;;;;;19.27;16.05;;;;;;;11.78;71.23;100505.19;10173298;29;20110;-62
2021/10/25 23:12:43;;;;;;;17.40;15.35;;;;;;;11.79;71.12;100504.22;10138079;29;20072;-62
2021/10/25 23:17:45;;;;;;;19.58;16.75;;;;;;;11.79;71.52;100501.56;10166323;28;20143;-62
2021/10/25 23:22:46;;;;;;;18.85;15.65;;;;;;;11.70;71.37;100507.66;10170796;29;20072;-62
2021/10/25 23:27:47;;;;;;;19.95;16.42;;;;;;;11.67;71.27;100516.72;10155963;29;20143;-62
2021/10/25 23:32:49;;;;;;;17.88;15.52;;;;;;;11.73;71.22;100528.72;10175215;29;20134;-63
2021/10/25 23:37:51;;;;;;;21.50;17.20;;;;;;;11.44;71.01;100532.75;10153735;29;20450;-62
2021/10/25 23:42:53;;;;;;;18.23;15.63;;;;;;;11.42;71.34;100539.16;10168632;29;20459;-61
2021/10/25 23:47:55;;;;;;;20.50;16.20;;;;;;;11.45;70.93;100529.13;10170982;29;20068;-63
2021/10/25 23:52:56;;;;;;;22.90;16.27;;;;;;;11.42;71.42;100540.00;10174067;29;20546;-63
2021/10/25 23:57:57;;;;;;;19.02;17.02;;;;;;;11.34;71.65;100528.28;10176711;28;20067;-63
